Time;durP1;ratioP1;P1;durP2;ratioP2;P2;SDS_P1;SDS_P2;PMS_P1;PMS_P2;Temp;Humidity;BMP_temperature;BMP_pressure;BME280_temperature;BME280_humidity;BME280_pressure;Samples;Min_cycle;Max_cycle;Signal;HPM_P1;HPM_P2
2023/09/06 00:00:43;;;;;;;4.53;2.83;;;;;;;21.85;100.00;-18614.19;5027726;28;20041;-76
2023/09/06 00:03:12;;;;;;;4.80;3.08;;;;;;;21.79;100.00;-18612.44;5028223;28;20072;-76
2023/09/06 00:05:41;;;;;;;4.78;2.65;;;;;;;21.84;100.00;-18613.94;5000898;28;20078;-76
2023/09/06 00:08:16;;;;;;;4.80;3.08;;;;;;;21.78;100.00;-18612.31;5029806;28;20041;-76
2023/09/06 00:10:45;;;;;;;5.05;2.90;;;;;;;21.79;100.00;-18612.44;5025819;28;20038;-76
2023/09/06 00:13:12;;;;;;;5.30;3.60;;;;;;;21.57;100.00;-18606.59;5026838;28;20563;-77
2023/09/06 00:15:38;;;;;;;8.18;3.22;;;;;;;21.51;100.00;-18604.97;5027417;28;20045;-76
2023/09/06 00:18:08;;;;;;;5.38;3.20;;;;;;;21.51;100.00;-18604.97;5030183;28;20068;-77
2023/09/06 00:20:35;;;;;;;5.70;3.55;;;;;;;21.32;100.00;-18600.06;5025383;28;20045;-77
2023/09/06 00:23:05;;;;;;;5.13;3.40;;;;;;;21.22;100.00;-18597.34;5027461;28;20049;-76
2023/09/06 00:25:32;;;;;;;5.35;3.38;;;;;;;21.03;100.00;-18592.31;5025938;28;20144;-77
2023/09/06 00:27:59;;;;;;;4.95;3.70;;;;;;;21.15;100.00;-18595.44;5008679;28;20042;-76
2023/09/06 00:30:24;;;;;;;6.78;4.35;;;;;;;21.09;100.00;-18593.81;5025868;28;20444;-77
2023/09/06 00:32:53;;;;;;;6.78;3.83;;;;;;;21.06;100.00;-18593.13;5028619;28;20046;-76
2023/09/06 00:35:25;;;;;;;5.35;3.55;;;;;;;21.22;100.00;-18597.22;5026982;28;20049;-76
2023/09/06 00:37:51;;;;;;;4.00;3.10;;;;;;;21.16;100.00;-18595.84;5021461;28;20048;-76
2023/09/06 00:40:17;;;;;;;5.70;3.40;;;;;;;21.12;100.00;-18594.63;5025427;28;20417;-76
2023/09/06 00:42:59;;;;;;;5.63;3.17;;;;;;;21.15;100.00;-18595.56;5023863;28;20048;-77
2023/09/06 00:45:26;;;;;;;6.18;3.70;;;;;;;21.05;100.00;-18592.72;5025456;28;20048;-76
2023/09/06 00:47:55;;;;;;;5.05;3.25;;;;;;;20.96;100.00;-18590.53;5027274;28;20041;-76
2023/09/06 00:50:21;;;;;;;5.38;3.42;;;;;;;20.94;100.00;-18590.00;5027978;28;20033;-76
2023/09/06 00:52:48;;;;;;;5.00;3.30;;;;;;;20.78;100.00;-18585.66;5004175;28;20045;-76
2023/09/06 00:55:13;;;;;;;6.00;3.30;;;;;;;20.76;100.00;-18585.09;5025083;28;20064;-77
2023/09/06 00:57:40;;;;;;;6.70;3.28;;;;;;;20.68;100.00;-18582.94;5006923;28;20042;-75
2023/09/06 01:00:12;;;;;;;6.30;3.65;;;;;;;20.85;100.00;-18587.56;5002777;28;20075;-76
2023/09/06 01:02:38;;;;;;;5.78;3.35;;;;;;;20.84;100.00;-18587.28;5024575;28;20057;-76
2023/09/06 01:05:04;;;;;;;5.40;3.17;;;;;;;20.69;100.00;-18583.19;4996429;28;20064;-76
2023/09/06 01:07:34;;;;;;;5.85;3.15;;;;;;;20.78;100.00;-18585.50;5027235;28;20464;-76
2023/09/06 01:10:00;;;;;;;4.93;3.45;;;;;;;20.81;100.00;-18586.47;5027306;28;20555;-77
2023/09/06 01:12:26;;;;;;;4.70;3.38;;;;;;;20.85;100.00;-18587.41;5017992;28;20048;-77
2023/09/06 01:14:51;;;;;;;4.55;3.55;;;;;;;20.78;100.00;-18585.50;5025902;28;20057;-76
2023/09/06 01:17:19;;;;;;;7.32;3.92;;;;;;;20.72;100.00;-18584.00;5020195;28;20060;-77
2023/09/06 01:19:51;;;;;;;6.18;3.33;;;;;;;20.64;100.00;-18581.97;5020619;28;20124;-77
2023/09/06 01:22:28;;;;;;;7.15;3.80;;;;;;;20.62;100.00;-18581.28;5009766;28;20134;-76
2023/09/06 01:24:54;;;;;;;5.32;3.58;;;;;;;20.67;100.00;-18582.78;5001730;28;20132;-76
2023/09/06 01:27:20;;;;;;;4.85;3.28;;;;;;;20.54;100.00;-18579.25;5018545;28;20056;-77
2023/09/06 01:29:46;;;;;;;5.35;3.20;;;;;;;20.73;100.00;-18584.41;5020087;28;20053;-77
2023/09/06 01:32:11;;;;;;;5.00;3.42;;;;;;;20.62;100.00;-18581.28;5026801;28;20041;-76
2023/09/06 01:34:37;;;;;;;4.68;3.30;;;;;;;20.65;100.00;-18582.25;5019800;28;20034;-77
2023/09/06 01:37:02;;;;;;;4.22;3.60;;;;;;;20.66;100.00;-18582.38;5026804;28;20048;-77
2023/09/06 01:39:28;;;;;;;5.93;3.80;;;;;;;20.61;100.00;-18581.03;5024571;28;20136;-77
2023/09/06 01:41:53;;;;;;;5.30;3.40;;;;;;;20.62;100.00;-18581.44;5025784;28;20052;-77
2023/09/06 01:44:18;;;;;;;6.32;3.80;;;;;;;20.73;100.00;-18584.28;5026977;28;20037;-77
2023/09/06 01:46:45;;;;;;;6.78;3.80;;;;;;;20.38;100.00;-18575.03;5020353;28;20096;-77
2023/09/06 01:49:11;;;;;;;5.10;3.75;;;;;;;20.46;100.00;-18577.22;5021664;28;20531;-77
2023/09/06 01:51:36;;;;;;;4.90;3.67;;;;;;;20.53;100.00;-18578.84;5021893;28;20045;-77
2023/09/06 01:54:04;;;;;;;5.97;4.20;;;;;;;20.36;100.00;-18574.47;5023477;28;20061;-77
2023/09/06 01:56:30;;;;;;;4.88;3.70;;;;;;;20.36;100.00;-18574.47;5023765;28;20099;-77
2023/09/06 01:58:55;;;;;;;5.95;3.75;;;;;;;20.31;100.00;-18573.13;5021331;28;20057;-77
2023/09/06 02:01:21;;;;;;;6.38;4.15;;;;;;;20.18;100.00;-18569.72;5019486;28;20474;-77
2023/09/06 02:03:46;;;;;;;7.03;4.35;;;;;;;20.26;100.00;-18571.91;5023477;28;20045;-76
2023/09/06 02:06:11;;;;;;;5.90;4.10;;;;;;;20.30;100.00;-18572.84;5024741;28;20558;-76
2023/09/06 02:08:39;;;;;;;5.43;4.05;;;;;;;20.27;100.00;-18572.03;5022654;28;20043;-77
2023/09/06 02:11:06;;;;;;;8.95;4.40;;;;;;;20.36;100.00;-18574.47;5015146;28;20049;-77
2023/09/06 02:13:32;;;;;;;5.05;4.05;;;;;;;20.22;100.00;-18570.81;5022691;28;20049;-76
2023/09/06 02:15:59;;;;;;;5.57;4.10;;;;;;;20.22;100.00;-18570.81;5015070;28;20980;-77
2023/09/06 02:18:26;;;;;;;6.57;4.68;;;;;;;20.19;100.00;-18570.00;5025158;28;20405;-76
2023/09/06 02:20:54;;;;;;;7.32;4.70;;;;;;;20.09;100.00;-18567.13;5025704;28;20045;-76
2023/09/06 02:23:19;;;;;;;6.00;4.32;;;;;;;20.20;100.00;-18570.13;5025628;28;20497;-75
2023/09/06 02:25:45;;;;;;;5.72;3.90;;;;;;;19.95;100.00;-18563.47;5021355;28;20051;-76
2023/09/06 02:28:10;;;;;;;8.20;4.53;;;;;;;20.13;100.00;-18568.34;5024839;28;20053;-76
2023/09/06 02:30:38;;;;;;;6.72;4.47;;;;;;;20.14;100.00;-18568.50;5021170;28;20050;-76
2023/09/06 02:33:04;;;;;;;5.93;4.23;;;;;;;20.08;100.00;-18567.00;5025339;28;20438;-76
2023/09/06 02:35:30;;;;;;;6.15;4.25;;;;;;;19.84;100.00;-18560.59;5007597;28;20132;-76
2023/09/06 02:37:56;;;;;;;6.20;4.15;;;;;;;19.73;100.00;-18557.59;5006565;28;20041;-76
2023/09/06 02:40:22;;;;;;;6.75;4.40;;;;;;;19.83;100.00;-18560.34;5020403;28;20124;-76
2023/09/06 02:42:51;;;;;;;6.70;4.88;;;;;;;19.78;100.00;-18558.97;5018988;28;20089;-76
2023/09/06 02:45:17;;;;;;;7.65;4.50;;;;;;;19.72;100.00;-18557.34;5025795;28;20122;-76
2023/09/06 02:47:50;;;;;;;7.63;4.72;;;;;;;19.74;100.00;-18558.00;5024696;28;20077;-77
2023/09/06 02:50:17;;;;;;;7.35;4.60;;;;;;;19.79;100.00;-18559.25;5023286;28;20051;-76
2023/09/06 02:52:45;;;;;;;6.55;4.43;;;;;;;19.90;100.00;-18562.22;5025424;28;20029;-76
2023/09/06 02:55:13;;;;;;;7.35;5.15;;;;;;;19.87;100.00;-18561.41;5020883;28;20041;-76
2023/09/06 02:57:40;;;;;;;6.40;4.90;;;;;;;19.88;100.00;-18561.69;5018503;28;20061;-76
2023/09/06 03:00:18;;;;;;;7.50;4.90;;;;;;;19.95;100.00;-18563.59;5023870;28;20080;-77
2023/09/06 03:02:45;;;;;;;8.40;5.20;;;;;;;19.89;100.00;-18561.97;5020702;28;20041;-77
2023/09/06 03:05:11;;;;;;;7.00;4.65;;;;;;;19.74;100.00;-18558.00;5019984;28;20595;-77
2023/09/06 03:07:36;;;;;;;6.78;5.25;;;;;;;19.66;100.00;-18555.84;5018047;28;20128;-77
2023/09/06 03:10:02;;;;;;;8.73;5.43;;;;;;;19.65;100.00;-18555.41;5004078;28;20077;-77
2023/09/06 03:12:29;;;;;;;6.43;4.75;;;;;;;19.59;100.00;-18554.06;5017027;28;20061;-76
2023/09/06 03:14:55;;;;;;;7.15;5.13;;;;;;;19.46;100.00;-18550.53;5023277;28;20042;-76
2023/09/06 03:17:22;;;;;;;7.93;5.30;;;;;;;19.50;100.00;-18551.59;5015109;28;20497;-77
2023/09/06 03:19:53;;;;;;;7.45;5.00;;;;;;;19.42;100.00;-18549.44;5005947;28;20125;-77
2023/09/06 03:22:23;;;;;;;6.88;5.30;;;;;;;19.39;100.00;-18548.59;5001253;28;20069;-76
2023/09/06 03:24:55;;;;;;;7.70;5.35;;;;;;;19.40;100.00;-18548.88;5014225;28;20106;-78
2023/09/06 03:27:21;;;;;;;7.82;5.63;;;;;;;19.56;100.00;-18553.09;5025403;28;20033;-77
2023/09/06 03:29:50;;;;;;;6.75;5.30;;;;;;;19.46;100.00;-18550.53;5022429;28;20040;-77
2023/09/06 03:32:17;;;;;;;8.48;5.65;;;;;;;19.47;100.00;-18550.78;5023935;28;20475;-77
2023/09/06 03:34:45;;;;;;;10.07;5.55;;;;;;;19.58;100.00;-18553.78;5024879;28;20065;-76
2023/09/06 03:37:11;;;;;;;7.75;5.03;;;;;;;19.62;100.00;-18554.75;5025502;28;20052;-76
2023/09/06 03:39:43;;;;;;;9.70;5.80;;;;;;;19.54;100.00;-18552.56;5025595;28;20034;-76
2023/09/06 03:42:09;;;;;;;10.15;6.25;;;;;;;19.25;100.00;-18544.78;5024517;28;20705;-76
2023/09/06 03:44:35;;;;;;;7.53;5.63;;;;;;;19.31;100.00;-18546.44;5016700;28;20048;-77
2023/09/06 03:47:05;;;;;;;8.43;5.80;;;;;;;19.34;100.00;-18547.38;5024957;28;20053;-76
2023/09/06 03:49:32;;;;;;;8.18;6.20;;;;;;;19.43;100.00;-18549.69;5013384;28;20139;-77
2023/09/06 03:51:58;;;;;;;8.02;6.25;;;;;;;19.33;100.00;-18546.97;5021740;28;20068;-76
2023/09/06 03:54:24;;;;;;;9.15;6.07;;;;;;;19.31;100.00;-18546.44;5017553;28;20503;-76
2023/09/06 03:56:49;;;;;;;8.13;6.43;;;;;;;19.31;100.00;-18546.44;5017679;28;20041;-76
2023/09/06 03:59:16;;;;;;;7.95;5.68;;;;;;;19.34;100.00;-18547.38;5024845;28;20042;-76
2023/09/06 04:01:43;;;;;;;8.15;5.82;;;;;;;19.29;100.00;-18546.03;5017745;28;20048;-77
2023/09/06 04:04:09;;;;;;;8.55;6.07;;;;;;;19.04;100.00;-18539.22;5025278;28;20033;-77
2023/09/06 04:06:35;;;;;;;8.55;5.85;;;;;;;19.00;100.00;-18538.13;5020199;28;20132;-76
2023/09/06 04:09:00;;;;;;;10.15;6.82;;;;;;;19.11;100.00;-18541.25;5025179;28;20045;-76
2023/09/06 04:11:26;;;;;;;8.10;5.85;;;;;;;19.06;100.00;-18539.91;5002542;28;20137;-76
2023/09/06 04:13:51;;;;;;;9.27;6.00;;;;;;;18.97;100.00;-18537.31;5012905;28;20037;-76
2023/09/06 04:16:16;;;;;;;10.27;6.70;;;;;;;18.90;100.00;-18535.53;5023660;28;20045;-76
2023/09/06 04:18:42;;;;;;;9.60;6.32;;;;;;;18.81;100.00;-18533.06;5023361;28;20091;-76
2023/09/06 04:21:10;;;;;;;9.15;6.18;;;;;;;18.84;100.00;-18534.03;5027216;28;20072;-77
2023/09/06 04:23:36;;;;;;;9.37;6.57;;;;;;;19.01;100.00;-18538.41;5026172;28;20556;-76
2023/09/06 04:26:03;;;;;;;9.73;6.63;;;;;;;19.00;100.00;-18538.25;5006986;28;20573;-77
2023/09/06 04:28:29;;;;;;;12.20;6.95;;;;;;;19.06;100.00;-18539.75;5023687;28;20724;-76
2023/09/06 04:30:56;;;;;;;10.77;6.30;;;;;;;19.17;100.00;-18542.88;5022365;28;21322;-77
2023/09/06 04:33:22;;;;;;;9.07;6.97;;;;;;;19.10;100.00;-18540.84;5026192;28;20091;-77
2023/09/06 04:35:49;;;;;;;8.35;6.00;;;;;;;18.92;100.00;-18536.06;5019196;28;20037;-77
2023/09/06 04:38:16;;;;;;;9.15;6.43;;;;;;;19.05;100.00;-18539.63;5004278;28;20133;-77
2023/09/06 04:40:43;;;;;;;10.68;7.35;;;;;;;19.05;100.00;-18539.50;5022284;28;20069;-77
2023/09/06 04:43:09;;;;;;;8.55;7.25;;;;;;;18.95;100.00;-18536.91;5006897;28;20489;-76
2023/09/06 04:45:37;;;;;;;9.13;6.55;;;;;;;18.93;100.00;-18536.50;5024809;28;20473;-77
2023/09/06 04:48:05;;;;;;;10.25;6.88;;;;;;;19.05;100.00;-18539.50;5020421;28;20111;-77
2023/09/06 04:50:30;;;;;;;10.38;7.47;;;;;;;19.09;100.00;-18540.72;5025115;28;20082;-77
2023/09/06 04:52:56;;;;;;;9.43;6.72;;;;;;;19.02;100.00;-18538.81;5004315;28;20058;-77
2023/09/06 04:55:22;;;;;;;9.68;6.45;;;;;;;19.03;100.00;-18539.06;5026301;28;20053;-77
2023/09/06 04:57:49;;;;;;;9.35;6.05;;;;;;;18.96;100.00;-18537.16;5008978;28;20071;-77
2023/09/06 05:00:17;;;;;;;8.35;6.45;;;;;;;18.75;100.00;-18531.44;5022759;28;20057;-77
2023/09/06 05:02:45;;;;;;;9.57;6.85;;;;;;;18.73;100.00;-18531.03;5022318;28;20120;-77
2023/09/06 05:05:11;;;;;;;9.85;6.63;;;;;;;18.75;100.00;-18531.44;5008731;28;20072;-77
2023/09/06 05:07:37;;;;;;;8.13;6.18;;;;;;;18.97;100.00;-18537.31;5027128;28;20041;-77
2023/09/06 05:10:03;;;;;;;8.27;6.60;;;;;;;18.87;100.00;-18534.84;5008152;28;20053;-77
2023/09/06 05:12:29;;;;;;;11.93;7.22;;;;;;;18.97;100.00;-18537.44;5021458;28;20137;-77
2023/09/06 05:14:55;;;;;;;14.48;8.10;;;;;;;18.90;100.00;-18535.53;5006268;28;20117;-77
2023/09/06 05:17:20;;;;;;;9.60;6.78;;;;;;;18.94;100.00;-18536.75;5011483;28;20065;-77
2023/09/06 05:19:50;;;;;;;9.95;6.70;;;;;;;19.00;100.00;-18538.25;5005153;28;20144;-77
2023/09/06 05:22:16;;;;;;;10.05;7.20;;;;;;;19.04;100.00;-18539.22;5013444;28;20041;-78
2023/09/06 05:24:41;;;;;;;9.15;7.03;;;;;;;19.12;100.00;-18541.38;5025577;28;20497;-77
2023/09/06 05:27:06;;;;;;;9.57;7.47;;;;;;;19.06;100.00;-18539.75;5007810;28;20038;-77
2023/09/06 05:29:32;;;;;;;9.55;6.82;;;;;;;19.06;100.00;-18539.91;5024563;28;20057;-77
2023/09/06 05:31:58;;;;;;;11.05;7.05;;;;;;;18.86;100.00;-18534.44;5027082;28;20052;-77
2023/09/06 05:34:23;;;;;;;9.40;6.95;;;;;;;19.11;100.00;-18541.25;5022256;28;20044;-77
2023/09/06 05:36:49;;;;;;;9.07;6.75;;;;;;;19.19;100.00;-18543.31;5019450;28;20046;-77
2023/09/06 05:39:14;;;;;;;8.55;7.30;;;;;;;19.14;100.00;-18542.06;5019733;28;20053;-77
2023/09/06 05:41:39;;;;;;;9.73;7.60;;;;;;;19.24;100.00;-18544.66;5025260;28;20711;-77
2023/09/06 05:44:07;;;;;;;10.43;7.57;;;;;;;19.35;100.00;-18547.53;5018263;28;20065;-77
2023/09/06 05:46:33;;;;;;;9.38;6.80;;;;;;;19.45;100.00;-18550.25;5021626;28;20435;-77
2023/09/06 05:48:58;;;;;;;9.15;7.00;;;;;;;19.43;100.00;-18549.69;5020773;28;20041;-76
2023/09/06 05:51:24;;;;;;;9.45;6.65;;;;;;;19.49;100.00;-18551.34;5023919;28;20041;-75
2023/09/06 05:53:49;;;;;;;9.60;6.32;;;;;;;19.52;100.00;-18552.16;5007907;28;20536;-76
2023/09/06 05:56:14;;;;;;;9.63;6.70;;;;;;;19.55;100.00;-18552.97;5018457;28;20409;-75
2023/09/06 05:58:40;;;;;;;9.13;6.88;;;;;;;19.83;100.00;-18560.34;5025961;28;20045;-76
2023/09/06 06:01:06;;;;;;;8.18;6.28;;;;;;;19.99;100.00;-18564.56;5025434;28;20053;-76
2023/09/06 06:03:32;;;;;;;9.02;6.10;;;;;;;20.02;100.00;-18565.38;5025723;28;20052;-76
2023/09/06 06:05:58;;;;;;;7.60;5.32;;;;;;;20.02;100.00;-18565.50;5003810;28;20184;-76
2023/09/06 06:08:23;;;;;;;8.55;6.20;;;;;;;20.12;100.00;-18568.09;5023714;28;20517;-76
2023/09/06 06:10:48;;;;;;;8.73;6.15;;;;;;;20.23;100.00;-18570.94;5019313;28;20493;-76
2023/09/06 06:13:14;;;;;;;7.07;5.60;;;;;;;20.44;100.00;-18576.66;5022713;28;20051;-76
2023/09/06 06:15:39;;;;;;;7.10;5.72;;;;;;;20.57;100.00;-18579.94;5024878;28;20029;-77
2023/09/06 06:18:08;;;;;;;7.55;5.78;;;;;;;20.76;100.00;-18584.97;5026536;28;20057;-76
2023/09/06 06:20:33;;;;;;;9.15;5.43;;;;;;;20.81;100.00;-18586.47;5022448;28;20053;-77
2023/09/06 06:22:58;;;;;;;8.05;5.38;;;;;;;20.93;100.00;-18589.72;5001076;28;20042;-77
2023/09/06 06:25:24;;;;;;;8.13;5.20;;;;;;;21.11;100.00;-18594.47;5024316;28;20394;-76
2023/09/06 06:27:52;;;;;;;8.18;5.18;;;;;;;21.36;100.00;-18601.16;5019166;28;20219;-78
2023/09/06 06:30:18;;;;;;;7.88;5.35;;;;;;;21.68;100.00;-18609.44;5021588;28;20095;-78
2023/09/06 06:32:44;;;;;;;7.20;4.72;;;;;;;21.81;100.00;-18613.13;5027068;28;20120;-78
2023/09/06 06:35:11;;;;;;;7.82;4.90;;;;;;;21.76;100.00;-18611.75;5003919;28;20045;-78
2023/09/06 06:37:37;;;;;;;7.63;4.95;;;;;;;22.11;100.00;-18621.00;5025660;28;20539;-78
2023/09/06 06:40:05;;;;;;;7.18;4.70;;;;;;;22.32;100.00;-18626.44;5009446;28;20057;-78
2023/09/06 06:42:31;;;;;;;7.72;5.20;;;;;;;22.33;100.00;-18626.69;5019547;28;20489;-78
2023/09/06 06:44:57;;;;;;;9.95;4.93;;;;;;;22.36;100.00;-18627.53;4997611;28;20076;-78
2023/09/06 06:47:22;;;;;;;8.80;4.50;;;;;;;22.33;100.00;-18626.69;5021897;28;20053;-78
2023/09/06 06:49:51;;;;;;;5.88;4.25;;;;;;;22.54;100.00;-18632.41;5025739;28;20045;-78
2023/09/06 06:52:17;;;;;;;;;;;;;;;22.77;100.00;-18638.38;5027093;28;20100;-78
2023/09/06 06:54:42;;;;;;;7.43;4.57;;;;;;;22.81;100.00;-18639.47;5020185;28;20101;-78
2023/09/06 06:57:07;;;;;;;6.70;4.68;;;;;;;22.94;100.00;-18643.00;5026926;28;20045;-78
2023/09/06 06:59:34;;;;;;;7.25;4.88;;;;;;;23.22;100.00;-18650.47;5025926;28;20136;-75
2023/09/06 07:02:00;;;;;;;7.35;3.92;;;;;;;23.07;100.00;-18646.53;5024434;28;20037;-78
2023/09/06 07:04:25;;;;;;;6.75;4.88;;;;;;;23.21;100.00;-18650.19;5021438;28;20383;-78
2023/09/06 07:06:51;;;;;;;5.43;4.10;;;;;;;23.43;100.00;-18656.03;5024917;28;20076;-78
2023/09/06 07:09:16;;;;;;;7.20;4.65;;;;;;;23.45;100.00;-18656.41;5021316;28;20184;-78
2023/09/06 07:11:41;;;;;;;7.85;4.30;;;;;;;23.63;100.00;-18661.44;5010162;28;20037;-78
2023/09/06 07:14:07;;;;;;;6.00;4.38;;;;;;;23.80;100.00;-18665.91;5027528;28;20581;-75
2023/09/06 07:16:33;;;;;;;7.40;5.03;;;;;;;23.73;100.00;-18663.88;5024076;28;20045;-78
2023/09/06 07:18:59;;;;;;;5.95;4.28;;;;;;;23.67;100.00;-18662.25;5010248;28;20532;-78
2023/09/06 07:21:25;;;;;;;6.18;3.40;;;;;;;23.82;100.00;-18666.47;5007574;28;20053;-78
2023/09/06 07:23:50;;;;;;;6.40;3.67;;;;;;;23.94;100.00;-18669.59;5025681;28;20259;-78
2023/09/06 07:26:16;;;;;;;4.70;3.40;;;;;;;24.10;100.00;-18673.91;5018814;28;20068;-78
2023/09/06 07:28:45;;;;;;;6.85;3.70;;;;;;;24.18;100.00;-18675.81;5000667;28;20134;-77
2023/09/06 07:31:12;;;;;;;4.90;3.30;;;;;;;24.40;100.00;-18681.63;5010745;28;20050;-77
2023/09/06 07:33:38;;;;;;;5.10;3.20;;;;;;;24.52;100.00;-18685.03;5028162;28;20064;-76
2023/09/06 07:36:04;;;;;;;7.25;3.13;;;;;;;24.62;100.00;-18687.47;5019431;28;20057;-77
2023/09/06 07:38:30;;;;;;;5.35;3.50;;;;;;;24.76;97.35;-18691.41;5023670;28;20041;-77
2023/09/06 07:41:08;;;;;;;5.32;3.28;;;;;;;24.95;95.92;-18696.28;5025312;28;20041;-77
2023/09/06 07:43:36;;;;;;;5.17;2.93;;;;;;;24.85;95.19;-18693.69;5023821;28;20053;-77
2023/09/06 07:46:03;;;;;;;6.32;3.45;;;;;;;25.05;94.65;-18698.84;5025237;28;20124;-77
2023/09/06 07:48:31;;;;;;;4.65;2.92;;;;;;;25.07;98.05;-18699.38;5019262;28;20041;-77
2023/09/06 07:50:58;;;;;;;4.38;2.75;;;;;;;25.20;93.73;-18702.91;5026306;28;20048;-77
2023/09/06 07:53:26;;;;;;;5.25;2.97;;;;;;;25.36;91.73;-18707.25;5025539;28;20545;-77
2023/09/06 07:55:52;;;;;;;3.80;2.70;;;;;;;25.57;89.29;-18712.78;5008174;28;20080;-76
2023/09/06 07:58:18;;;;;;;6.15;2.25;;;;;;;25.53;90.56;-18711.56;5029457;28;20045;-77
2023/09/06 08:00:43;;;;;;;3.53;1.98;;;;;;;25.70;87.85;-18716.16;5021134;28;20048;-77
2023/09/06 08:03:10;;;;;;;5.03;2.45;;;;;;;25.83;87.49;-18719.56;5025016;28;20121;-77
2023/09/06 08:05:36;;;;;;;4.13;2.40;;;;;;;25.95;85.74;-18722.66;5025241;28;20045;-77
2023/09/06 08:08:02;;;;;;;5.10;2.60;;;;;;;26.06;85.10;-18725.63;5023215;28;20049;-77
2023/09/06 08:10:28;;;;;;;4.43;1.85;;;;;;;26.17;85.75;-18728.63;5026409;28;20183;-77
2023/09/06 08:12:54;;;;;;;4.05;2.30;;;;;;;26.35;83.38;-18733.34;5002789;28;20112;-77
2023/09/06 08:15:19;;;;;;;4.15;2.10;;;;;;;26.38;83.16;-18734.16;5014031;28;20029;-77
2023/09/06 08:17:47;;;;;;;3.13;2.00;;;;;;;26.53;82.91;-18738.22;5021227;28;20068;-77
2023/09/06 08:20:15;;;;;;;5.38;2.28;;;;;;;26.69;80.88;-18742.41;5019754;28;20041;-77
2023/09/06 08:22:41;;;;;;;3.08;2.00;;;;;;;26.75;77.09;-18744.03;5027023;28;20789;-77
2023/09/06 08:25:07;;;;;;;3.35;2.10;;;;;;;26.80;74.51;-18745.25;5028076;28;20048;-77
2023/09/06 08:27:33;;;;;;;3.65;1.88;;;;;;;26.86;74.47;-18746.72;5028276;28;20513;-77
2023/09/06 08:29:58;;;;;;;3.80;1.70;;;;;;;27.10;75.07;-18753.06;5021531;28;20068;-77
2023/09/06 08:32:24;;;;;;;5.22;2.05;;;;;;;27.19;75.81;-18755.66;5019228;28;20045;-77
2023/09/06 08:34:49;;;;;;;3.05;1.70;;;;;;;26.92;75.41;-18748.34;5026499;28;20068;-77
2023/09/06 08:37:15;;;;;;;3.38;2.05;;;;;;;27.05;73.60;-18751.88;5024114;28;20501;-76
2023/09/06 08:39:40;;;;;;;3.75;2.10;;;;;;;27.34;75.06;-18759.44;5018721;28;20081;-76
2023/09/06 08:42:06;;;;;;;4.80;2.20;;;;;;;27.38;71.17;-18760.50;5024416;28;20514;-77
2023/09/06 08:44:32;;;;;;;5.28;2.13;;;;;;;27.55;70.24;-18765.09;5026741;28;20037;-77
2023/09/06 08:47:01;;;;;;;3.25;1.90;;;;;;;27.72;68.86;-18769.41;5026446;28;20045;-76
2023/09/06 08:49:27;;;;;;;2.95;1.67;;;;;;;27.67;66.61;-18768.19;5027125;28;20041;-76
2023/09/06 08:51:55;;;;;;;4.95;1.85;;;;;;;27.84;64.44;-18772.66;5026481;28;20397;-77
2023/09/06 08:54:23;;;;;;;3.60;1.88;;;;;;;27.95;67.97;-18775.50;5027306;28;20041;-77
2023/09/06 08:56:50;;;;;;;3.75;1.60;;;;;;;28.21;65.82;-18782.38;5028788;28;20036;-77
2023/09/06 08:59:17;;;;;;;3.72;2.10;;;;;;;28.28;62.84;-18784.41;5020444;28;20050;-76
2023/09/06 09:01:43;;;;;;;4.13;1.80;;;;;;;28.33;62.49;-18785.75;5021331;28;20042;-76
2023/09/06 09:04:09;;;;;;;3.50;1.80;;;;;;;28.41;60.63;-18787.75;5017093;28;20041;-76
2023/09/06 09:06:34;;;;;;;3.33;2.08;;;;;;;28.58;63.34;-18792.09;5017129;28;20045;-76
2023/09/06 09:09:17;;;;;;;4.47;1.98;;;;;;;28.73;58.68;-18796.13;5021181;28;20686;-76
2023/09/06 09:11:49;;;;;;;4.05;1.65;;;;;;;28.83;55.95;-18798.69;5025088;28;20037;-76
2023/09/06 09:14:25;;;;;;;3.00;2.10;;;;;;;28.84;56.05;-18798.97;5025754;28;20045;-76
2023/09/06 09:16:55;;;;;;;4.38;1.83;;;;;;;28.95;57.64;-18801.94;5020655;28;20492;-76
2023/09/06 09:19:22;;;;;;;4.03;2.10;;;;;;;28.85;54.34;-18799.22;5006485;28;20050;-76
2023/09/06 09:21:48;;;;;;;3.72;1.95;;;;;;;29.04;52.80;-18804.22;5025863;28;20033;-76
2023/09/06 09:24:24;;;;;;;3.88;1.95;;;;;;;29.23;56.71;-18809.47;5026536;28;20037;-76
2023/09/06 09:26:49;;;;;;;4.38;2.00;;;;;;;29.30;54.74;-18811.22;5024776;28;20072;-76
2023/09/06 09:29:15;;;;;;;3.70;2.17;;;;;;;29.36;54.91;-18812.72;5026162;28;20128;-76
2023/09/06 09:31:41;;;;;;;4.07;2.28;;;;;;;29.31;52.40;-18811.50;5020155;28;20041;-76
2023/09/06 09:34:06;;;;;;;4.38;1.98;;;;;;;29.41;52.01;-18814.19;5026397;28;20489;-76
2023/09/06 09:36:34;;;;;;;4.07;2.28;;;;;;;29.62;53.80;-18819.56;5024873;28;20053;-76
2023/09/06 09:39:08;;;;;;;4.88;2.15;;;;;;;29.64;53.72;-18820.13;5009943;28;20044;-76
2023/09/06 09:41:34;;;;;;;3.70;2.13;;;;;;;29.63;50.64;-18819.84;5023897;28;20053;-76
2023/09/06 09:44:15;;;;;;;3.55;2.33;;;;;;;29.77;49.53;-18823.47;5025953;28;20184;-77
2023/09/06 09:46:45;;;;;;;4.25;2.08;;;;;;;30.01;51.87;-18829.81;5023834;28;20064;-76
2023/09/06 09:49:12;;;;;;;5.72;2.13;;;;;;;30.10;49.54;-18832.22;5008703;28;20034;-76
2023/09/06 09:51:39;;;;;;;3.15;1.95;;;;;;;30.15;49.59;-18833.56;5007896;28;20132;-75
2023/09/06 09:54:05;;;;;;;3.40;2.15;;;;;;;30.28;50.01;-18837.06;5001378;28;20048;-76
2023/09/06 09:56:33;;;;;;;4.25;2.30;;;;;;;30.39;49.73;-18839.78;5018650;28;20041;-76
2023/09/06 09:59:01;;;;;;;4.28;2.20;;;;;;;30.20;47.84;-18834.91;5001825;28;20524;-76
2023/09/06 10:01:31;;;;;;;;;;;;;;;30.24;48.67;-18836.00;5024434;28;20064;-76
2023/09/06 10:03:58;;;;;;;5.40;2.45;;;;;;;30.14;48.35;-18833.31;5026066;28;20049;-76
2023/09/06 10:06:26;;;;;;;4.13;2.38;;;;;;;30.20;48.22;-18834.91;5023108;28;20653;-76
2023/09/06 10:08:55;;;;;;;3.88;2.08;;;;;;;30.35;46.83;-18838.97;5019831;28;20037;-76
2023/09/06 10:11:21;;;;;;;5.00;2.42;;;;;;;30.33;46.34;-18838.28;5019611;28;20044;-76
2023/09/06 10:13:47;;;;;;;5.35;2.42;;;;;;;30.49;47.32;-18842.59;5018715;28;20045;-76
2023/09/06 10:16:14;;;;;;;6.00;2.33;;;;;;;30.61;48.12;-18845.53;5004454;28;20046;-76
2023/09/06 10:18:39;;;;;;;3.90;2.10;;;;;;;30.75;47.89;-18849.44;5025153;28;20184;-76
2023/09/06 10:21:06;;;;;;;3.50;2.20;;;;;;;30.75;46.69;-18849.44;5002794;28;20128;-76
2023/09/06 10:23:40;;;;;;;3.83;2.05;;;;;;;30.85;46.61;-18851.88;4999270;28;20153;-76
2023/09/06 10:26:06;;;;;;;4.65;2.60;;;;;;;31.02;48.79;-18856.44;5019451;28;20049;-76
2023/09/06 10:28:32;;;;;;;4.63;2.40;;;;;;;31.19;46.91;-18861.00;4999575;28;20041;-76
2023/09/06 10:31:07;;;;;;;5.22;2.20;;;;;;;31.21;45.48;-18861.41;5015253;28;20064;-76
2023/09/06 10:33:35;;;;;;;2.83;1.70;;;;;;;31.29;46.81;-18863.44;5018939;28;20037;-76
2023/09/06 10:36:13;;;;;;;5.13;2.50;;;;;;;31.30;45.13;-18863.81;5022445;28;22295;-77
2023/09/06 10:38:50;;;;;;;5.93;2.35;;;;;;;31.49;45.28;-18868.81;5009343;28;20128;-76
2023/09/06 10:41:17;;;;;;;4.53;2.30;;;;;;;31.41;43.80;-18866.66;5005096;28;20045;-76
2023/09/06 10:43:53;;;;;;;3.40;2.17;;;;;;;31.77;44.75;-18876.06;5021823;28;20459;-77
2023/09/06 10:46:18;;;;;;;2.70;1.90;;;;;;;31.82;44.49;-18877.41;5007988;28;20513;-77
2023/09/06 10:49:19;;;;;;;3.80;2.28;;;;;;;31.82;43.39;-18877.41;4997094;28;20049;-76
2023/09/06 10:52:10;;;;;;;3.55;1.92;;;;;;;31.72;43.74;-18874.72;5019790;28;20040;-76
2023/09/06 10:54:40;;;;;;;3.78;2.40;;;;;;;31.86;43.50;-18878.47;5024497;28;20521;-76
2023/09/06 10:57:07;;;;;;;3.53;2.17;;;;;;;31.94;44.14;-18880.63;5020104;28;20571;-77
2023/09/06 10:59:43;;;;;;;5.32;2.47;;;;;;;32.22;45.30;-18887.88;5026074;28;20057;-78
2023/09/06 11:02:08;;;;;;;3.85;2.15;;;;;;;32.13;41.77;-18885.59;5020770;28;20503;-77
2023/09/06 11:04:34;;;;;;;3.75;1.95;;;;;;;32.28;43.53;-18889.63;5024487;28;20037;-76
2023/09/06 11:06:59;;;;;;;5.00;2.08;;;;;;;32.49;43.17;-18895.00;5004643;28;20384;-77
2023/09/06 11:09:26;;;;;;;4.03;2.13;;;;;;;32.61;41.64;-18898.06;5026500;28;20040;-77
2023/09/06 11:11:52;;;;;;;4.47;1.75;;;;;;;32.57;42.83;-18897.28;5016975;28;20089;-74
2023/09/06 11:14:17;;;;;;;4.32;2.25;;;;;;;32.56;40.74;-18897.00;5023773;28;20038;-76
2023/09/06 11:16:47;;;;;;;5.70;2.22;;;;;;;32.43;41.46;-18893.50;5018523;28;20033;-76
2023/09/06 11:19:12;;;;;;;3.13;1.90;;;;;;;32.43;40.14;-18893.50;5024720;28;20447;-76